sensor_id;sensor_type;location;lat;lon;timestamp;temperature;humidity
827;DHT22;395;48.132;11.608;2022-12-18T00:00:46;-0.10;1.00
827;DHT22;395;48.132;11.608;2022-12-18T00:03:16;-0.20;1.00
827;DHT22;395;48.132;11.608;2022-12-18T00:05:51;1.00;1.00
827;DHT22;395;48.132;11.608;2022-12-18T00:08:18;-0.20;1.00
827;DHT22;395;48.132;11.608;2022-12-18T00:10:45;-0.20;1.00
827;DHT22;395;48.132;11.608;2022-12-18T00:13:11;-0.20;1.00
827;DHT22;395;48.132;11.608;2022-12-18T00:15:38;-0.20;1.00
827;DHT22;395;48.132;11.608;2022-12-18T00:18:04;-0.20;1.00
827;DHT22;395;48.132;11.608;2022-12-18T00:20:35;-0.20;1.00
827;DHT22;395;48.132;11.608;2022-12-18T00:23:00;-0.30;1.00
827;DHT22;395;48.132;11.608;2022-12-18T00:25:26;-0.20;1.00
827;DHT22;395;48.132;11.608;2022-12-18T00:27:52;-0.30;1.00
827;DHT22;395;48.132;11.608;2022-12-18T00:30:18;-0.30;1.00
827;DHT22;395;48.132;11.608;2022-12-18T00:32:44;-0.30;1.00
827;DHT22;395;48.132;11.608;2022-12-18T00:35:09;-0.30;1.00
827;DHT22;395;48.132;11.608;2022-12-18T00:37:35;-0.30;1.00
827;DHT22;395;48.132;11.608;2022-12-18T00:40:01;-0.40;1.00
827;DHT22;395;48.132;11.608;2022-12-18T00:42:27;-0.40;1.00
827;DHT22;395;48.132;11.608;2022-12-18T00:45:11;-0.40;1.00
827;DHT22;395;48.132;11.608;2022-12-18T00:47:36;-0.40;1.00
827;DHT22;395;48.132;11.608;2022-12-18T00:50:02;-0.40;1.00
827;DHT22;395;48.132;11.608;2022-12-18T00:52:28;-0.40;1.00
827;DHT22;395;48.132;11.608;2022-12-18T00:54:54;-0.40;1.00
827;DHT22;395;48.132;11.608;2022-12-18T00:57:19;-0.40;1.00
827;DHT22;395;48.132;11.608;2022-12-18T00:59:45;-0.40;1.00
827;DHT22;395;48.132;11.608;2022-12-18T01:02:10;-0.50;1.00
827;DHT22;395;48.132;11.608;2022-12-18T01:04:36;-0.50;1.00
827;DHT22;395;48.132;11.608;2022-12-18T01:07:02;-0.50;1.00
827;DHT22;395;48.132;11.608;2022-12-18T01:09:27;-0.50;1.00
827;DHT22;395;48.132;11.608;2022-12-18T01:11:53;-0.60;1.00
827;DHT22;395;48.132;11.608;2022-12-18T01:14:19;-0.50;1.00
827;DHT22;395;48.132;11.608;2022-12-18T01:16:44;-0.60;1.00
827;DHT22;395;48.132;11.608;2022-12-18T01:19:10;-0.60;1.00
827;DHT22;395;48.132;11.608;2022-12-18T01:21:35;-0.60;1.00
827;DHT22;395;48.132;11.608;2022-12-18T01:24:01;-0.60;1.00
827;DHT22;395;48.132;11.608;2022-12-18T01:26:27;-0.60;1.00
827;DHT22;395;48.132;11.608;2022-12-18T01:28:55;-0.60;1.00
827;DHT22;395;48.132;11.608;2022-12-18T01:31:29;-0.60;1.00
827;DHT22;395;48.132;11.608;2022-12-18T01:33:55;-0.60;1.00
827;DHT22;395;48.132;11.608;2022-12-18T01:36:23;-0.50;1.00
827;DHT22;395;48.132;11.608;2022-12-18T01:38:50;-0.50;1.00
827;DHT22;395;48.132;11.608;2022-12-18T01:41:18;-0.40;1.00
827;DHT22;395;48.132;11.608;2022-12-18T01:46:19;-0.50;1.00
827;DHT22;395;48.132;11.608;2022-12-18T01:48:48;-0.50;1.00
827;DHT22;395;48.132;11.608;2022-12-18T01:51:15;-0.50;1.00
827;DHT22;395;48.132;11.608;2022-12-18T01:53:42;-0.50;1.00
827;DHT22;395;48.132;11.608;2022-12-18T01:56:13;-0.50;1.00
827;DHT22;395;48.132;11.608;2022-12-18T02:01:11;-0.50;1.00
827;DHT22;395;48.132;11.608;2022-12-18T02:03:40;-0.50;1.00
827;DHT22;395;48.132;11.608;2022-12-18T02:06:37;-0.50;1.00
827;DHT22;395;48.132;11.608;2022-12-18T02:09:36;-0.50;1.00
827;DHT22;395;48.132;11.608;2022-12-18T02:12:16;-0.50;1.00
827;DHT22;395;48.132;11.608;2022-12-18T02:17:24;-0.50;1.00
827;DHT22;395;48.132;11.608;2022-12-18T02:20:37;-0.50;1.00
827;DHT22;395;48.132;11.608;2022-12-18T02:25:38;-0.50;1.00
827;DHT22;395;48.132;11.608;2022-12-18T02:28:08;-0.50;1.00
827;DHT22;395;48.132;11.608;2022-12-18T02:30:36;-0.50;1.00
827;DHT22;395;48.132;11.608;2022-12-18T02:33:04;-0.50;1.00
827;DHT22;395;48.132;11.608;2022-12-18T02:35:32;-0.50;1.00
827;DHT22;395;48.132;11.608;2022-12-18T02:37:59;-0.50;1.00
827;DHT22;395;48.132;11.608;2022-12-18T02:40:26;-0.50;1.00
827;DHT22;395;48.132;11.608;2022-12-18T02:42:52;-0.50;1.00
827;DHT22;395;48.132;11.608;2022-12-18T02:45:18;-0.10;1.00
827;DHT22;395;48.132;11.608;2022-12-18T02:47:48;-0.50;1.00
827;DHT22;395;48.132;11.608;2022-12-18T02:50:38;-0.50;1.00
827;DHT22;395;48.132;11.608;2022-12-18T02:53:17;-0.50;1.00
827;DHT22;395;48.132;11.608;2022-12-18T02:56:07;-0.50;1.00
827;DHT22;395;48.132;11.608;2022-12-18T03:04:55;-0.50;1.00
827;DHT22;395;48.132;11.608;2022-12-18T03:07:27;-0.50;1.00
827;DHT22;395;48.132;11.608;2022-12-18T03:09:54;-0.50;1.00
827;DHT22;395;48.132;11.608;2022-12-18T03:12:34;-0.50;1.00
827;DHT22;395;48.132;11.608;2022-12-18T03:17:39;-0.40;1.00
827;DHT22;395;48.132;11.608;2022-12-18T03:20:12;-0.40;1.00
827;DHT22;395;48.132;11.608;2022-12-18T03:22:38;-0.40;1.00
827;DHT22;395;48.132;11.608;2022-12-18T03:25:06;-0.40;1.00
827;DHT22;395;48.132;11.608;2022-12-18T03:27:36;-0.40;1.00
827;DHT22;395;48.132;11.608;2022-12-18T03:30:08;-0.40;1.00
827;DHT22;395;48.132;11.608;2022-12-18T03:33:23;-0.40;1.00
827;DHT22;395;48.132;11.608;2022-12-18T03:35:32;-0.40;1.00
827;DHT22;395;48.132;11.608;2022-12-18T03:37:59;-0.40;1.00
827;DHT22;395;48.132;11.608;2022-12-18T03:40:31;-0.40;1.00
827;DHT22;395;48.132;11.608;2022-12-18T03:43:35;-0.40;1.00
827;DHT22;395;48.132;11.608;2022-12-18T03:46:24;-0.40;1.00
827;DHT22;395;48.132;11.608;2022-12-18T03:49:00;-0.40;1.00
827;DHT22;395;48.132;11.608;2022-12-18T03:52:22;-0.30;1.00
827;DHT22;395;48.132;11.608;2022-12-18T03:54:28;-0.50;1.00
827;DHT22;395;48.132;11.608;2022-12-18T03:57:07;-0.50;1.00
827;DHT22;395;48.132;11.608;2022-12-18T03:59:35;-0.50;1.00
827;DHT22;395;48.132;11.608;2022-12-18T04:02:03;-0.50;1.00
827;DHT22;395;48.132;11.608;2022-12-18T04:04:30;-0.40;1.00
827;DHT22;395;48.132;11.608;2022-12-18T04:06:56;-0.40;1.00
827;DHT22;395;48.132;11.608;2022-12-18T04:09:23;-0.50;1.00
827;DHT22;395;48.132;11.608;2022-12-18T04:11:48;-0.50;1.00
827;DHT22;395;48.132;11.608;2022-12-18T04:14:14;-0.50;1.00
827;DHT22;395;48.132;11.608;2022-12-18T04:16:40;-0.40;1.00
827;DHT22;395;48.132;11.608;2022-12-18T04:19:06;-0.40;1.00
827;DHT22;395;48.132;11.608;2022-12-18T04:21:31;-0.40;1.00
827;DHT22;395;48.132;11.608;2022-12-18T04:23:57;-0.40;1.00
827;DHT22;395;48.132;11.608;2022-12-18T04:26:23;-0.40;1.00
827;DHT22;395;48.132;11.608;2022-12-18T04:28:48;-0.40;1.00
827;DHT22;395;48.132;11.608;2022-12-18T04:31:14;-0.40;1.00
827;DHT22;395;48.132;11.608;2022-12-18T04:33:40;-0.40;1.00
827;DHT22;395;48.132;11.608;2022-12-18T04:36:05;-0.40;1.00
827;DHT22;395;48.132;11.608;2022-12-18T04:38:31;-0.50;1.00
827;DHT22;395;48.132;11.608;2022-12-18T04:40:57;-0.50;1.00
827;DHT22;395;48.132;11.608;2022-12-18T04:43:23;-0.50;1.00
827;DHT22;395;48.132;11.608;2022-12-18T04:45:49;-0.50;1.00
827;DHT22;395;48.132;11.608;2022-12-18T04:48:14;-0.50;1.00
827;DHT22;395;48.132;11.608;2022-12-18T04:50:40;-0.40;1.00
827;DHT22;395;48.132;11.608;2022-12-18T04:53:06;-0.40;1.00
827;DHT22;395;48.132;11.608;2022-12-18T04:55:31;-0.40;1.00
827;DHT22;395;48.132;11.608;2022-12-18T04:57:57;-0.40;1.00
827;DHT22;395;48.132;11.608;2022-12-18T05:00:23;-0.40;1.00
827;DHT22;395;48.132;11.608;2022-12-18T05:02:48;-0.40;1.00
827;DHT22;395;48.132;11.608;2022-12-18T05:05:14;-0.40;1.00
827;DHT22;395;48.132;11.608;2022-12-18T05:07:40;-0.40;1.00
827;DHT22;395;48.132;11.608;2022-12-18T05:10:06;-0.40;1.00
827;DHT22;395;48.132;11.608;2022-12-18T05:12:32;-0.40;1.00
827;DHT22;395;48.132;11.608;2022-12-18T05:14:57;-0.40;1.00
827;DHT22;395;48.132;11.608;2022-12-18T05:17:23;-0.50;1.00
827;DHT22;395;48.132;11.608;2022-12-18T05:19:49;-0.40;1.00
827;DHT22;395;48.132;11.608;2022-12-18T05:22:14;-0.50;1.00
827;DHT22;395;48.132;11.608;2022-12-18T05:24:40;-0.40;1.00
827;DHT22;395;48.132;11.608;2022-12-18T05:27:06;-0.40;1.00
827;DHT22;395;48.132;11.608;2022-12-18T05:29:31;-0.40;1.00
827;DHT22;395;48.132;11.608;2022-12-18T05:31:57;-0.40;1.00
827;DHT22;395;48.132;11.608;2022-12-18T05:34:22;-0.40;1.00
827;DHT22;395;48.132;11.608;2022-12-18T05:36:48;-0.40;1.00
827;DHT22;395;48.132;11.608;2022-12-18T05:39:14;-0.40;1.00
827;DHT22;395;48.132;11.608;2022-12-18T05:41:39;-0.40;1.00
827;DHT22;395;48.132;11.608;2022-12-18T05:44:06;-0.40;1.00
827;DHT22;395;48.132;11.608;2022-12-18T05:46:31;-0.40;1.00
827;DHT22;395;48.132;11.608;2022-12-18T05:48:59;0.00;1.00
827;DHT22;395;48.132;11.608;2022-12-18T05:51:25;-0.40;1.00
827;DHT22;395;48.132;11.608;2022-12-18T05:53:51;-0.40;1.00
827;DHT22;395;48.132;11.608;2022-12-18T05:56:19;-0.40;1.00
827;DHT22;395;48.132;11.608;2022-12-18T05:58:46;-0.40;1.00
827;DHT22;395;48.132;11.608;2022-12-18T06:01:17;-0.30;1.00
827;DHT22;395;48.132;11.608;2022-12-18T06:03:43;-0.30;1.00
827;DHT22;395;48.132;11.608;2022-12-18T06:06:17;-0.30;1.00
827;DHT22;395;48.132;11.608;2022-12-18T06:08:43;-0.30;1.00
827;DHT22;395;48.132;11.608;2022-12-18T06:11:09;-0.40;1.00
827;DHT22;395;48.132;11.608;2022-12-18T06:13:34;-0.40;1.00
827;DHT22;395;48.132;11.608;2022-12-18T06:16:05;-0.30;1.00
827;DHT22;395;48.132;11.608;2022-12-18T06:18:31;-0.30;1.00
827;DHT22;395;48.132;11.608;2022-12-18T06:20:59;-0.40;1.00
827;DHT22;395;48.132;11.608;2022-12-18T06:23:25;-0.40;1.00
827;DHT22;395;48.132;11.608;2022-12-18T06:25:50;-0.40;1.00
827;DHT22;395;48.132;11.608;2022-12-18T06:28:16;-0.40;1.00
827;DHT22;395;48.132;11.608;2022-12-18T06:30:45;-0.40;1.00
827;DHT22;395;48.132;11.608;2022-12-18T06:33:11;-0.40;1.00
827;DHT22;395;48.132;11.608;2022-12-18T06:35:37;-0.50;1.00
827;DHT22;395;48.132;11.608;2022-12-18T06:38:02;-0.40;1.00
827;DHT22;395;48.132;11.608;2022-12-18T06:40:29;-0.40;1.00
827;DHT22;395;48.132;11.608;2022-12-18T06:42:55;-0.50;1.00
827;DHT22;395;48.132;11.608;2022-12-18T06:45:20;-0.50;1.00
827;DHT22;395;48.132;11.608;2022-12-18T06:47:46;-0.50;1.00
827;DHT22;395;48.132;11.608;2022-12-18T06:50:12;-0.50;1.00
827;DHT22;395;48.132;11.608;2022-12-18T06:52:38;-0.50;1.00
827;DHT22;395;48.132;11.608;2022-12-18T06:55:06;-0.50;1.00
827;DHT22;395;48.132;11.608;2022-12-18T06:57:32;-0.50;1.00
827;DHT22;395;48.132;11.608;2022-12-18T06:59:58;-0.40;1.00
827;DHT22;395;48.132;11.608;2022-12-18T07:02:24;-0.40;1.00
827;DHT22;395;48.132;11.608;2022-12-18T07:04:49;-0.50;1.00
827;DHT22;395;48.132;11.608;2022-12-18T07:07:15;-0.50;1.00
827;DHT22;395;48.132;11.608;2022-12-18T07:09:41;-0.50;1.00
827;DHT22;395;48.132;11.608;2022-12-18T07:12:06;-0.40;1.00
827;DHT22;395;48.132;11.608;2022-12-18T07:14:33;-0.50;1.00
827;DHT22;395;48.132;11.608;2022-12-18T07:16:59;-0.50;1.00
827;DHT22;395;48.132;11.608;2022-12-18T07:19:24;-0.50;1.00
827;DHT22;395;48.132;11.608;2022-12-18T07:21:51;-0.50;1.00
827;DHT22;395;48.132;11.608;2022-12-18T07:24:16;-0.50;1.00
827;DHT22;395;48.132;11.608;2022-12-18T07:26:42;-0.50;1.00
827;DHT22;395;48.132;11.608;2022-12-18T07:29:10;-0.50;1.00
827;DHT22;395;48.132;11.608;2022-12-18T07:31:36;-0.40;1.00
827;DHT22;395;48.132;11.608;2022-12-18T07:34:01;-0.50;1.00
827;DHT22;395;48.132;11.608;2022-12-18T07:36:27;-0.50;1.00
827;DHT22;395;48.132;11.608;2022-12-18T07:38:52;-0.50;1.00
827;DHT22;395;48.132;11.608;2022-12-18T07:41:18;-0.50;1.00
827;DHT22;395;48.132;11.608;2022-12-18T07:43:44;-0.60;1.00
827;DHT22;395;48.132;11.608;2022-12-18T07:46:10;-0.50;1.00
827;DHT22;395;48.132;11.608;2022-12-18T07:48:36;-0.50;1.00
827;DHT22;395;48.132;11.608;2022-12-18T07:51:04;-0.50;1.00
827;DHT22;395;48.132;11.608;2022-12-18T07:53:31;-0.50;1.00
827;DHT22;395;48.132;11.608;2022-12-18T07:55:58;-0.50;1.00
827;DHT22;395;48.132;11.608;2022-12-18T07:58:25;-0.50;1.00
827;DHT22;395;48.132;11.608;2022-12-18T08:00:50;-0.50;1.00
827;DHT22;395;48.132;11.608;2022-12-18T08:03:18;-0.50;1.00
827;DHT22;395;48.132;11.608;2022-12-18T08:05:43;-0.40;1.00
827;DHT22;395;48.132;11.608;2022-12-18T08:08:09;-0.40;1.00
827;DHT22;395;48.132;11.608;2022-12-18T08:10:35;-0.50;1.00
827;DHT22;395;48.132;11.608;2022-12-18T08:13:00;-0.50;1.00
827;DHT22;395;48.132;11.608;2022-12-18T08:15:26;-0.50;1.00
827;DHT22;395;48.132;11.608;2022-12-18T08:17:51;-0.40;1.00
827;DHT22;395;48.132;11.608;2022-12-18T08:20:17;-0.40;1.00
827;DHT22;395;48.132;11.608;2022-12-18T08:22:44;-0.40;1.00
827;DHT22;395;48.132;11.608;2022-12-18T08:25:09;-0.40;1.00
827;DHT22;395;48.132;11.608;2022-12-18T08:27:36;-0.40;1.00
827;DHT22;395;48.132;11.608;2022-12-18T08:30:02;-0.40;1.00
827;DHT22;395;48.132;11.608;2022-12-18T08:32:28;-0.40;1.00
827;DHT22;395;48.132;11.608;2022-12-18T08:34:53;-0.40;1.00
827;DHT22;395;48.132;11.608;2022-12-18T08:37:19;-0.40;1.00
827;DHT22;395;48.132;11.608;2022-12-18T08:39:45;-0.30;1.00
827;DHT22;395;48.132;11.608;2022-12-18T08:42:10;-0.30;1.00
827;DHT22;395;48.132;11.608;2022-12-18T08:44:55;-0.30;1.00
827;DHT22;395;48.132;11.608;2022-12-18T08:47:20;-0.30;1.00
827;DHT22;395;48.132;11.608;2022-12-18T08:49:46;-0.30;1.00
827;DHT22;395;48.132;11.608;2022-12-18T08:52:12;-0.30;1.00
827;DHT22;395;48.132;11.608;2022-12-18T08:54:37;-0.30;1.00
827;DHT22;395;48.132;11.608;2022-12-18T08:57:03;-0.30;1.00
827;DHT22;395;48.132;11.608;2022-12-18T08:59:28;-0.30;1.00
827;DHT22;395;48.132;11.608;2022-12-18T09:01:54;-0.30;1.00
827;DHT22;395;48.132;11.608;2022-12-18T09:04:20;-0.30;1.00
827;DHT22;395;48.132;11.608;2022-12-18T09:06:46;-0.30;1.00
827;DHT22;395;48.132;11.608;2022-12-18T09:09:12;0.30;1.00
827;DHT22;395;48.132;11.608;2022-12-18T09:11:38;-0.30;1.00
827;DHT22;395;48.132;11.608;2022-12-18T09:14:03;-0.40;1.00
827;DHT22;395;48.132;11.608;2022-12-18T09:16:29;-0.30;1.00
827;DHT22;395;48.132;11.608;2022-12-18T09:18:57;-0.40;1.00
827;DHT22;395;48.132;11.608;2022-12-18T09:21:27;-0.40;1.00
827;DHT22;395;48.132;11.608;2022-12-18T09:23:55;-0.40;1.00
827;DHT22;395;48.132;11.608;2022-12-18T09:26:22;-0.30;1.00
827;DHT22;395;48.132;11.608;2022-12-18T09:28:48;-0.30;1.00
827;DHT22;395;48.132;11.608;2022-12-18T09:31:14;-0.30;1.00
827;DHT22;395;48.132;11.608;2022-12-18T09:33:40;-0.30;1.00
827;DHT22;395;48.132;11.608;2022-12-18T09:36:09;-0.30;1.00
827;DHT22;395;48.132;11.608;2022-12-18T09:38:35;-0.30;1.00
827;DHT22;395;48.132;11.608;2022-12-18T09:44:27;-0.30;1.00
827;DHT22;395;48.132;11.608;2022-12-18T09:47:07;-0.20;1.00
827;DHT22;395;48.132;11.608;2022-12-18T09:49:39;-0.20;1.00
827;DHT22;395;48.132;11.608;2022-12-18T09:54:40;-0.20;1.00
827;DHT22;395;48.132;11.608;2022-12-18T09:57:05;-0.20;1.00
827;DHT22;395;48.132;11.608;2022-12-18T09:59:37;-0.20;1.00
827;DHT22;395;48.132;11.608;2022-12-18T10:02:21;-0.20;1.00
827;DHT22;395;48.132;11.608;2022-12-18T10:05:10;0.40;1.00
827;DHT22;395;48.132;11.608;2022-12-18T10:07:42;-0.10;1.00
827;DHT22;395;48.132;11.608;2022-12-18T10:15:32;-0.10;1.00
827;DHT22;395;48.132;11.608;2022-12-18T10:20:43;-0.10;1.00
827;DHT22;395;48.132;11.608;2022-12-18T10:28:12;-0.20;1.00
827;DHT22;395;48.132;11.608;2022-12-18T10:30:39;-0.10;1.00
827;DHT22;395;48.132;11.608;2022-12-18T10:33:08;-0.10;1.00
827;DHT22;395;48.132;11.608;2022-12-18T10:35:35;-0.10;1.00
827;DHT22;395;48.132;11.608;2022-12-18T10:40:32;-0.10;1.00
827;DHT22;395;48.132;11.608;2022-12-18T10:43:10;-0.10;1.00
827;DHT22;395;48.132;11.608;2022-12-18T10:45:37;-0.10;1.00
827;DHT22;395;48.132;11.608;2022-12-18T10:48:03;-0.10;1.00
827;DHT22;395;48.132;11.608;2022-12-18T10:50:32;-0.10;1.00
827;DHT22;395;48.132;11.608;2022-12-18T10:53:00;0.00;1.00
827;DHT22;395;48.132;11.608;2022-12-18T10:55:39;0.00;1.00
827;DHT22;395;48.132;11.608;2022-12-18T11:03:44;0.10;1.00
827;DHT22;395;48.132;11.608;2022-12-18T11:06:14;0.00;1.00
827;DHT22;395;48.132;11.608;2022-12-18T11:08:42;0.10;1.00
827;DHT22;395;48.132;11.608;2022-12-18T11:11:20;0.00;1.00
827;DHT22;395;48.132;11.608;2022-12-18T11:14:06;0.10;1.00
827;DHT22;395;48.132;11.608;2022-12-18T11:16:52;0.10;1.00
827;DHT22;395;48.132;11.608;2022-12-18T11:19:35;0.10;1.00
827;DHT22;395;48.132;11.608;2022-12-18T11:27:41;0.00;1.00
827;DHT22;395;48.132;11.608;2022-12-18T11:32:58;0.00;1.00
827;DHT22;395;48.132;11.608;2022-12-18T11:35:27;0.00;1.00
827;DHT22;395;48.132;11.608;2022-12-18T11:38:13;0.00;1.00
827;DHT22;395;48.132;11.608;2022-12-18T11:40:44;0.00;1.00
827;DHT22;395;48.132;11.608;2022-12-18T11:43:18;0.00;1.00
827;DHT22;395;48.132;11.608;2022-12-18T11:45:59;0.00;1.00
827;DHT22;395;48.132;11.608;2022-12-18T11:48:32;0.00;1.00
827;DHT22;395;48.132;11.608;2022-12-18T11:51:04;0.00;1.00
827;DHT22;395;48.132;11.608;2022-12-18T11:53:30;0.00;1.00
827;DHT22;395;48.132;11.608;2022-12-18T11:56:31;0.10;1.00
827;DHT22;395;48.132;11.608;2022-12-18T11:59:08;0.10;1.00
827;DHT22;395;48.132;11.608;2022-12-18T12:01:50;0.10;1.00
827;DHT22;395;48.132;11.608;2022-12-18T12:04:39;0.10;1.00
827;DHT22;395;48.132;11.608;2022-12-18T12:23:43;0.10;1.00
827;DHT22;395;48.132;11.608;2022-12-18T12:26:57;0.10;1.00
827;DHT22;395;48.132;11.608;2022-12-18T12:37:38;0.40;1.00
827;DHT22;395;48.132;11.608;2022-12-18T12:40:06;0.50;1.00
827;DHT22;395;48.132;11.608;2022-12-18T12:42:41;0.50;1.00
827;DHT22;395;48.132;11.608;2022-12-18T12:45:44;0.60;1.00
827;DHT22;395;48.132;11.608;2022-12-18T12:48:20;0.60;1.00
827;DHT22;395;48.132;11.608;2022-12-18T12:50:48;0.50;1.00
827;DHT22;395;48.132;11.608;2022-12-18T12:53:26;0.60;1.00
827;DHT22;395;48.132;11.608;2022-12-18T12:55:54;0.70;1.00
827;DHT22;395;48.132;11.608;2022-12-18T12:58:44;0.70;1.00
827;DHT22;395;48.132;11.608;2022-12-18T13:07:06;0.70;1.00
827;DHT22;395;48.132;11.608;2022-12-18T13:15:41;0.80;1.00
827;DHT22;395;48.132;11.608;2022-12-18T13:23:34;0.80;1.00
827;DHT22;395;48.132;11.608;2022-12-18T13:28:56;0.70;1.00
827;DHT22;395;48.132;11.608;2022-12-18T13:34:28;0.60;1.00
827;DHT22;395;48.132;11.608;2022-12-18T13:39:58;0.60;1.00
827;DHT22;395;48.132;11.608;2022-12-18T13:45:41;0.40;1.00
827;DHT22;395;48.132;11.608;2022-12-18T13:48:16;0.40;1.00
827;DHT22;395;48.132;11.608;2022-12-18T13:50:42;0.40;1.00
827;DHT22;395;48.132;11.608;2022-12-18T13:53:23;0.30;1.00
827;DHT22;395;48.132;11.608;2022-12-18T13:55:50;0.30;1.00
827;DHT22;395;48.132;11.608;2022-12-18T13:58:16;0.30;1.00
827;DHT22;395;48.132;11.608;2022-12-18T14:00:43;0.20;1.00
827;DHT22;395;48.132;11.608;2022-12-18T14:03:21;0.20;1.00
827;DHT22;395;48.132;11.608;2022-12-18T14:06:03;0.30;1.00
827;DHT22;395;48.132;11.608;2022-12-18T14:08:37;0.20;1.00
827;DHT22;395;48.132;11.608;2022-12-18T14:11:05;0.20;1.00
827;DHT22;395;48.132;11.608;2022-12-18T14:13:42;0.20;1.00
827;DHT22;395;48.132;11.608;2022-12-18T14:16:11;0.20;1.00
827;DHT22;395;48.132;11.608;2022-12-18T14:18:56;0.20;1.00
827;DHT22;395;48.132;11.608;2022-12-18T14:21:26;0.20;1.00
827;DHT22;395;48.132;11.608;2022-12-18T14:24:15;0.20;1.00
827;DHT22;395;48.132;11.608;2022-12-18T14:26:42;0.20;1.00
827;DHT22;395;48.132;11.608;2022-12-18T14:29:26;0.10;1.00
827;DHT22;395;48.132;11.608;2022-12-18T14:32:14;0.10;1.00
827;DHT22;395;48.132;11.608;2022-12-18T14:34:43;0.10;1.00
827;DHT22;395;48.132;11.608;2022-12-18T14:37:14;0.00;1.00
827;DHT22;395;48.132;11.608;2022-12-18T14:39:40;0.00;1.00
827;DHT22;395;48.132;11.608;2022-12-18T14:42:17;0.00;1.00
827;DHT22;395;48.132;11.608;2022-12-18T14:44:42;0.00;1.00
827;DHT22;395;48.132;11.608;2022-12-18T14:47:14;-0.10;1.00
827;DHT22;395;48.132;11.608;2022-12-18T14:49:41;-0.10;1.00
827;DHT22;395;48.132;11.608;2022-12-18T14:52:27;-0.10;1.00
827;DHT22;395;48.132;11.608;2022-12-18T14:54:53;-0.20;1.00
827;DHT22;395;48.132;11.608;2022-12-18T14:57:21;-0.20;1.00
827;DHT22;395;48.132;11.608;2022-12-18T14:59:47;-0.20;1.00
827;DHT22;395;48.132;11.608;2022-12-18T15:02:27;-0.20;1.00
827;DHT22;395;48.132;11.608;2022-12-18T15:07:45;-0.20;1.00
827;DHT22;395;48.132;11.608;2022-12-18T15:18:00;-0.30;1.00
827;DHT22;395;48.132;11.608;2022-12-18T15:20:26;-0.30;1.00
827;DHT22;395;48.132;11.608;2022-12-18T15:22:52;-0.40;1.00
827;DHT22;395;48.132;11.608;2022-12-18T15:25:36;-0.40;1.00
827;DHT22;395;48.132;11.608;2022-12-18T15:28:04;-0.30;1.00
827;DHT22;395;48.132;11.608;2022-12-18T15:31:01;-0.40;1.00
827;DHT22;395;48.132;11.608;2022-12-18T15:33:34;-0.40;1.00
827;DHT22;395;48.132;11.608;2022-12-18T15:36:07;-0.40;1.00
827;DHT22;395;48.132;11.608;2022-12-18T15:38:34;-0.40;1.00
827;DHT22;395;48.132;11.608;2022-12-18T15:41:00;-0.50;1.00
827;DHT22;395;48.132;11.608;2022-12-18T15:43:28;-0.50;1.00
827;DHT22;395;48.132;11.608;2022-12-18T15:46:05;-0.50;1.00
827;DHT22;395;48.132;11.608;2022-12-18T15:48:33;-0.50;1.00
827;DHT22;395;48.132;11.608;2022-12-18T15:51:00;-0.50;1.00
827;DHT22;395;48.132;11.608;2022-12-18T15:53:30;-0.50;1.00
827;DHT22;395;48.132;11.608;2022-12-18T15:55:57;-0.50;1.00
827;DHT22;395;48.132;11.608;2022-12-18T15:58:41;-0.50;1.00
827;DHT22;395;48.132;11.608;2022-12-18T16:01:09;-0.50;1.00
827;DHT22;395;48.132;11.608;2022-12-18T16:03:35;-0.50;1.00
827;DHT22;395;48.132;11.608;2022-12-18T16:06:01;-0.60;1.00
827;DHT22;395;48.132;11.608;2022-12-18T16:08:28;-0.60;1.00
827;DHT22;395;48.132;11.608;2022-12-18T16:10:56;-0.60;1.00
827;DHT22;395;48.132;11.608;2022-12-18T16:13:21;-0.60;1.00
827;DHT22;395;48.132;11.608;2022-12-18T16:15:48;-0.60;1.00
827;DHT22;395;48.132;11.608;2022-12-18T16:18:14;-0.60;1.00
827;DHT22;395;48.132;11.608;2022-12-18T16:20:40;-0.50;1.00
827;DHT22;395;48.132;11.608;2022-12-18T16:23:06;-0.50;1.00
827;DHT22;395;48.132;11.608;2022-12-18T16:25:32;-0.50;1.00
827;DHT22;395;48.132;11.608;2022-12-18T16:27:57;-0.50;1.00
827;DHT22;395;48.132;11.608;2022-12-18T16:30:28;-0.50;1.00
827;DHT22;395;48.132;11.608;2022-12-18T16:32:56;-0.50;1.00
827;DHT22;395;48.132;11.608;2022-12-18T16:35:24;-0.50;1.00
827;DHT22;395;48.132;11.608;2022-12-18T16:37:50;-0.50;1.00
827;DHT22;395;48.132;11.608;2022-12-18T16:40:17;-0.50;1.00
827;DHT22;395;48.132;11.608;2022-12-18T16:42:44;-0.50;1.00
827;DHT22;395;48.132;11.608;2022-12-18T16:45:17;-0.50;1.00
827;DHT22;395;48.132;11.608;2022-12-18T16:47:43;-0.50;1.00
827;DHT22;395;48.132;11.608;2022-12-18T16:50:10;-0.50;1.00
827;DHT22;395;48.132;11.608;2022-12-18T16:52:36;-0.50;1.00
827;DHT22;395;48.132;11.608;2022-12-18T16:55:03;-0.50;1.00
827;DHT22;395;48.132;11.608;2022-12-18T16:57:28;-0.50;1.00
827;DHT22;395;48.132;11.608;2022-12-18T16:59:54;0.00;1.00
827;DHT22;395;48.132;11.608;2022-12-18T17:02:25;-0.50;1.00
827;DHT22;395;48.132;11.608;2022-12-18T17:04:56;-0.50;1.00
827;DHT22;395;48.132;11.608;2022-12-18T17:07:23;-0.50;1.00
827;DHT22;395;48.132;11.608;2022-12-18T17:09:49;-0.50;1.00
827;DHT22;395;48.132;11.608;2022-12-18T17:12:15;-0.60;1.00
827;DHT22;395;48.132;11.608;2022-12-18T17:14:41;-0.60;1.00
827;DHT22;395;48.132;11.608;2022-12-18T17:17:07;-0.60;1.00
827;DHT22;395;48.132;11.608;2022-12-18T17:19:32;-0.60;1.00
827;DHT22;395;48.132;11.608;2022-12-18T17:21:58;-0.60;1.00
827;DHT22;395;48.132;11.608;2022-12-18T17:24:24;-0.60;1.00
827;DHT22;395;48.132;11.608;2022-12-18T17:26:50;-0.60;1.00
827;DHT22;395;48.132;11.608;2022-12-18T17:29:18;-0.60;1.00
827;DHT22;395;48.132;11.608;2022-12-18T17:31:45;-0.60;1.00
827;DHT22;395;48.132;11.608;2022-12-18T17:34:12;-0.60;1.00
827;DHT22;395;48.132;11.608;2022-12-18T17:36:38;-0.60;1.00
827;DHT22;395;48.132;11.608;2022-12-18T17:39:04;-0.60;1.00
827;DHT22;395;48.132;11.608;2022-12-18T17:41:30;-0.60;1.00
827;DHT22;395;48.132;11.608;2022-12-18T17:44:02;-0.60;1.00
827;DHT22;395;48.132;11.608;2022-12-18T17:46:30;-0.70;1.00
827;DHT22;395;48.132;11.608;2022-12-18T17:48:58;-0.60;1.00
827;DHT22;395;48.132;11.608;2022-12-18T17:51:25;-0.70;1.00
827;DHT22;395;48.132;11.608;2022-12-18T17:53:51;-0.70;1.00
827;DHT22;395;48.132;11.608;2022-12-18T17:56:20;-1.10;1.00
827;DHT22;395;48.132;11.608;2022-12-18T17:58:46;-0.70;1.00
827;DHT22;395;48.132;11.608;2022-12-18T18:01:18;-0.70;1.00
827;DHT22;395;48.132;11.608;2022-12-18T18:03:47;-0.70;1.00
827;DHT22;395;48.132;11.608;2022-12-18T18:06:13;-0.70;1.00
827;DHT22;395;48.132;11.608;2022-12-18T18:08:39;-0.70;1.00
827;DHT22;395;48.132;11.608;2022-12-18T18:11:07;-0.70;1.00
827;DHT22;395;48.132;11.608;2022-12-18T18:13:52;-0.70;1.00
827;DHT22;395;48.132;11.608;2022-12-18T18:16:37;-0.70;1.00
827;DHT22;395;48.132;11.608;2022-12-18T18:19:05;-0.60;1.00
827;DHT22;395;48.132;11.608;2022-12-18T18:21:32;-0.70;1.00
827;DHT22;395;48.132;11.608;2022-12-18T18:24:02;-0.70;1.00
827;DHT22;395;48.132;11.608;2022-12-18T18:26:30;-0.80;1.00
827;DHT22;395;48.132;11.608;2022-12-18T18:28:57;-0.80;1.00
827;DHT22;395;48.132;11.608;2022-12-18T18:31:25;-0.80;1.00
827;DHT22;395;48.132;11.608;2022-12-18T18:33:52;-0.80;1.00
827;DHT22;395;48.132;11.608;2022-12-18T18:36:18;-0.80;1.00
827;DHT22;395;48.132;11.608;2022-12-18T18:38:43;-0.70;1.00
827;DHT22;395;48.132;11.608;2022-12-18T18:41:09;-0.70;1.00
827;DHT22;395;48.132;11.608;2022-12-18T18:43:35;-0.70;1.00
827;DHT22;395;48.132;11.608;2022-12-18T18:46:03;-0.70;1.00
827;DHT22;395;48.132;11.608;2022-12-18T18:48:34;-0.70;1.00
827;DHT22;395;48.132;11.608;2022-12-18T18:51:10;-0.80;1.00